createdAt,value
2022-11-08T00:00:01.600Z,11.17
2022-11-08T00:01:01.562Z,11.17
2022-11-08T00:02:01.711Z,11.17
2022-11-08T00:03:01.675Z,11.17
2022-11-08T00:04:01.546Z,11.16
2022-11-08T00:05:01.520Z,11.16
2022-11-08T00:06:01.510Z,11.16
2022-11-08T00:07:01.496Z,11.17
2022-11-08T00:08:01.486Z,11.20
2022-11-08T00:09:01.475Z,11.20
2022-11-08T00:10:01.472Z,11.21
2022-11-08T00:11:01.470Z,11.21
2022-11-08T00:12:01.452Z,11.21
2022-11-08T00:13:01.422Z,11.24
2022-11-08T00:14:01.421Z,11.24
2022-11-08T00:15:01.400Z,11.24
2022-11-08T00:16:01.396Z,11.24
2022-11-08T00:17:01.375Z,11.21
2022-11-08T00:18:01.376Z,11.19
2022-11-08T00:19:01.359Z,11.19
2022-11-08T00:20:01.349Z,11.17
2022-11-08T00:21:01.356Z,11.16
2022-11-08T00:22:01.325Z,11.14
2022-11-08T00:23:01.336Z,11.14
2022-11-08T00:24:01.307Z,11.10
2022-11-08T00:25:01.337Z,11.09
2022-11-08T00:26:01.276Z,11.07
2022-11-08T00:27:01.279Z,11.07
2022-11-08T00:28:01.261Z,11.03
2022-11-08T00:29:01.248Z,11.03
2022-11-08T00:30:01.248Z,11.06
2022-11-08T00:31:01.219Z,11.02
2022-11-08T00:32:01.211Z,11.02
2022-11-08T00:33:01.187Z,11.01
2022-11-08T00:34:01.188Z,11.01
2022-11-08T00:35:01.168Z,10.99
2022-11-08T00:36:01.158Z,11.01
2022-11-08T00:37:01.156Z,10.99
2022-11-08T00:38:01.142Z,10.98
2022-11-08T00:39:01.147Z,10.96
2022-11-08T00:40:01.118Z,10.94
2022-11-08T00:41:01.100Z,10.88
2022-11-08T00:42:01.089Z,10.80
2022-11-08T00:43:01.076Z,10.73
2022-11-08T00:44:01.093Z,10.68
2022-11-08T00:45:01.067Z,10.66
2022-11-08T00:46:01.056Z,10.63
2022-11-08T00:47:01.046Z,10.62
2022-11-08T00:48:01.027Z,10.60
2022-11-08T00:49:01.031Z,10.60
2022-11-08T00:50:01.030Z,10.62
2022-11-08T00:51:01.000Z,10.62
2022-11-08T00:52:00.992Z,10.63
2022-11-08T00:53:00.979Z,10.65
2022-11-08T00:54:00.972Z,10.65
2022-11-08T00:55:00.942Z,10.63
2022-11-08T00:56:00.942Z,10.65
2022-11-08T00:57:00.919Z,10.66
2022-11-08T00:58:00.998Z,10.68
2022-11-08T00:59:00.915Z,10.66
2022-11-08T01:00:00.886Z,10.70
2022-11-08T01:01:00.937Z,10.71
2022-11-08T01:02:00.997Z,10.70
2022-11-08T01:03:00.860Z,10.73
2022-11-08T01:04:00.891Z,10.74
2022-11-08T01:05:00.839Z,10.77
2022-11-08T01:06:00.820Z,10.81
2022-11-08T01:07:00.809Z,10.84
2022-11-08T01:08:00.800Z,10.89
2022-11-08T01:09:00.809Z,10.95
2022-11-08T01:10:00.777Z,10.98
2022-11-08T01:11:00.767Z,11.01
2022-11-08T01:12:00.750Z,11.03
2022-11-08T01:13:00.744Z,11.07
2022-11-08T01:14:00.749Z,11.09
2022-11-08T01:15:00.791Z,11.11
2022-11-08T01:16:00.717Z,11.16
2022-11-08T01:17:00.703Z,11.16
2022-11-08T01:18:00.683Z,11.17
2022-11-08T01:19:00.708Z,11.19
2022-11-08T01:20:00.678Z,11.21
2022-11-08T01:21:00.651Z,11.24
2022-11-08T01:22:00.651Z,11.25
2022-11-08T01:23:00.623Z,11.28
2022-11-08T01:24:00.624Z,11.29
2022-11-08T01:25:00.606Z,11.31
2022-11-08T01:26:00.584Z,11.35
2022-11-08T01:27:00.587Z,11.38
2022-11-08T01:28:00.570Z,11.44
2022-11-08T01:29:00.585Z,11.49
2022-11-08T01:30:00.547Z,11.53
2022-11-08T01:31:00.565Z,11.57
2022-11-08T01:32:00.518Z,11.59
2022-11-08T01:33:00.536Z,11.62
2022-11-08T01:34:00.505Z,11.64
2022-11-08T01:35:00.508Z,11.65
2022-11-08T01:36:00.495Z,11.70
2022-11-08T01:37:00.477Z,11.70
2022-11-08T01:38:00.459Z,11.72
2022-11-08T01:39:00.467Z,11.72
2022-11-08T01:40:00.437Z,11.72
2022-11-08T01:41:00.440Z,11.74
2022-11-08T01:42:00.419Z,11.78
2022-11-08T01:43:00.406Z,11.80
2022-11-08T01:44:00.398Z,11.82
2022-11-08T01:45:00.379Z,11.82
2022-11-08T01:46:00.381Z,11.85
2022-11-08T01:47:01.311Z,11.82
2022-11-08T01:48:00.342Z,11.85
2022-11-08T01:49:00.352Z,11.85
2022-11-08T01:50:00.334Z,11.85
2022-11-08T01:51:00.318Z,11.85
2022-11-08T01:52:00.313Z,11.83
2022-11-08T01:53:00.289Z,11.83
2022-11-08T01:54:00.266Z,11.83
2022-11-08T01:55:00.292Z,11.82
2022-11-08T01:56:00.263Z,11.80
2022-11-08T01:57:00.253Z,11.80
2022-11-08T01:58:00.263Z,11.78
2022-11-08T01:59:00.262Z,11.78
2022-11-08T02:00:00.211Z,11.77
2022-11-08T02:01:00.248Z,11.75
2022-11-08T02:02:00.429Z,11.74
2022-11-08T02:03:00.173Z,11.72
2022-11-08T02:04:00.164Z,11.71
2022-11-08T02:05:00.163Z,11.68
2022-11-08T02:06:00.136Z,11.68
2022-11-08T02:07:00.130Z,11.65
2022-11-08T02:08:00.127Z,11.61
2022-11-08T02:09:01.075Z,11.59
2022-11-08T02:10:00.114Z,11.57
2022-11-08T02:11:00.089Z,11.53
2022-11-08T02:12:00.099Z,11.50
2022-11-08T02:13:04.597Z,11.49
2022-11-08T02:14:01.073Z,11.49
2022-11-08T02:15:00.044Z,11.46
2022-11-08T02:16:00.019Z,11.44
2022-11-08T02:17:00.029Z,11.44
2022-11-08T02:18:00.015Z,11.41
2022-11-08T02:19:00.012Z,11.38
2022-11-08T02:19:59.979Z,11.36
2022-11-08T02:20:59.976Z,11.34
2022-11-08T02:22:01.415Z,11.32
2022-11-08T02:23:00.000Z,11.31
2022-11-08T02:23:59.938Z,11.28
2022-11-08T02:24:59.923Z,11.29
2022-11-08T02:25:59.922Z,11.27
2022-11-08T02:26:59.905Z,11.27
2022-11-08T02:27:59.884Z,11.25
2022-11-08T02:28:59.893Z,11.25
2022-11-08T02:29:59.878Z,11.24
2022-11-08T02:30:59.859Z,11.24
2022-11-08T02:31:59.844Z,11.21
2022-11-08T02:32:59.844Z,11.20
2022-11-08T02:33:59.824Z,11.20
2022-11-08T02:34:59.822Z,11.19
2022-11-08T02:35:59.826Z,11.16
2022-11-08T02:37:00.740Z,11.16
2022-11-08T02:37:59.780Z,11.14
2022-11-08T02:38:59.763Z,11.14
2022-11-08T02:39:59.758Z,11.13
2022-11-08T02:40:59.762Z,11.09
2022-11-08T02:41:59.728Z,11.07
2022-11-08T02:42:59.743Z,11.06
2022-11-08T02:43:59.731Z,11.06
2022-11-08T02:44:59.719Z,11.03
2022-11-08T02:45:59.687Z,11.02
2022-11-08T02:46:59.677Z,11.01
2022-11-08T02:47:59.665Z,11.02
2022-11-08T02:48:59.663Z,11.01
2022-11-08T02:49:59.635Z,10.98
2022-11-08T02:50:59.626Z,10.98
2022-11-08T02:51:59.611Z,10.96
2022-11-08T02:52:59.609Z,10.96
2022-11-08T02:53:59.621Z,10.96
2022-11-08T02:54:59.589Z,10.96
2022-11-08T02:55:59.607Z,10.98
2022-11-08T02:56:59.568Z,10.95
2022-11-08T02:57:59.547Z,10.95
2022-11-08T02:58:59.541Z,10.96
2022-11-08T02:59:59.522Z,10.98
2022-11-08T03:00:59.604Z,10.95
2022-11-08T03:01:59.729Z,10.96
2022-11-08T03:02:59.493Z,10.96
2022-11-08T03:03:59.484Z,10.96
2022-11-08T03:04:59.524Z,10.95
2022-11-08T03:05:59.482Z,10.95
2022-11-08T03:06:59.454Z,10.95
2022-11-08T03:07:59.447Z,10.96
2022-11-08T03:08:59.425Z,10.95
2022-11-08T03:09:59.424Z,10.96
2022-11-08T03:10:59.396Z,10.96
2022-11-08T03:11:59.405Z,10.96
2022-11-08T03:12:59.392Z,10.96
2022-11-08T03:13:59.366Z,10.96
2022-11-08T03:14:59.368Z,10.95
2022-11-08T03:15:59.349Z,10.96
2022-11-08T03:16:59.591Z,10.96
2022-11-08T03:17:59.341Z,10.96
2022-11-08T03:18:59.315Z,10.98
2022-11-08T03:19:59.296Z,10.99
2022-11-08T03:20:59.295Z,10.99
2022-11-08T03:21:59.300Z,10.98
2022-11-08T03:22:59.271Z,11.01
2022-11-08T03:23:59.267Z,11.01
2022-11-08T03:24:59.269Z,11.02
2022-11-08T03:25:59.239Z,11.02
2022-11-08T03:26:59.225Z,11.01
2022-11-08T03:27:59.212Z,11.01
2022-11-08T03:28:59.228Z,11.01
2022-11-08T03:29:59.186Z,11.02
2022-11-08T03:30:59.216Z,11.01
2022-11-08T03:31:59.179Z,11.02
2022-11-08T03:32:59.153Z,11.01
2022-11-08T03:33:59.173Z,10.98
2022-11-08T03:34:59.127Z,10.99
2022-11-08T03:35:59.133Z,10.96
2022-11-08T03:36:59.105Z,10.96
2022-11-08T03:37:59.113Z,10.96
2022-11-08T03:38:59.104Z,10.95
2022-11-08T03:39:59.078Z,10.96
2022-11-08T03:40:59.058Z,10.95
2022-11-08T03:41:59.052Z,10.95
2022-11-08T03:42:59.046Z,10.98
2022-11-08T03:43:59.039Z,10.98
2022-11-08T03:44:59.038Z,10.96
2022-11-08T03:45:59.955Z,10.98
2022-11-08T03:46:59.029Z,10.98
2022-11-08T03:47:59.026Z,10.98
2022-11-08T03:48:58.970Z,10.98
2022-11-08T03:49:58.955Z,10.96
2022-11-08T03:50:58.949Z,10.98
2022-11-08T03:51:58.948Z,10.98
2022-11-08T03:52:58.937Z,10.96
2022-11-08T03:53:58.939Z,10.99
2022-11-08T03:54:58.903Z,10.98
2022-11-08T03:55:58.925Z,10.94
2022-11-08T03:56:58.883Z,10.95
2022-11-08T03:57:58.883Z,10.94
2022-11-08T03:58:58.857Z,10.94
2022-11-08T03:59:58.844Z,10.92
2022-11-08T04:00:58.879Z,10.92
2022-11-08T04:01:58.917Z,10.92
2022-11-08T04:02:58.830Z,10.91
2022-11-08T04:03:58.821Z,10.88
2022-11-08T04:04:58.800Z,10.88
2022-11-08T04:05:58.773Z,10.86
2022-11-08T04:06:58.785Z,10.83
2022-11-08T04:07:58.775Z,10.86
2022-11-08T04:08:58.744Z,10.83
2022-11-08T04:09:58.723Z,10.81
2022-11-08T04:10:58.734Z,10.80
2022-11-08T04:11:58.781Z,10.78
2022-11-08T04:12:58.714Z,10.77
2022-11-08T04:13:58.697Z,10.74
2022-11-08T04:14:58.675Z,10.74
2022-11-08T04:15:58.712Z,10.73
2022-11-08T04:16:58.669Z,10.71
2022-11-08T04:17:58.645Z,10.70
2022-11-08T04:18:58.645Z,10.70
2022-11-08T04:19:58.629Z,10.68
2022-11-08T04:20:58.617Z,10.68
2022-11-08T04:21:58.644Z,10.66
2022-11-08T04:22:58.587Z,10.68
2022-11-08T04:23:58.570Z,10.68
2022-11-08T04:24:58.580Z,10.68
2022-11-08T04:25:58.548Z,10.68
2022-11-08T04:26:58.551Z,10.70
2022-11-08T04:27:58.529Z,10.68
2022-11-08T04:28:58.511Z,10.68
2022-11-08T04:29:58.513Z,10.68
2022-11-08T04:30:58.501Z,10.68
2022-11-08T04:31:58.489Z,10.68
2022-11-08T04:32:58.471Z,10.70
2022-11-08T04:33:58.480Z,10.70
2022-11-08T04:34:58.450Z,10.71
2022-11-08T04:35:58.448Z,10.70
2022-11-08T04:36:58.422Z,10.70
2022-11-08T04:37:58.414Z,10.68
2022-11-08T04:38:58.401Z,10.68
2022-11-08T04:39:58.402Z,10.65
2022-11-08T04:40:58.406Z,10.63
2022-11-08T04:42:02.069Z,10.59
2022-11-08T04:42:58.374Z,10.55
2022-11-08T04:43:58.352Z,10.52
2022-11-08T04:44:58.354Z,10.46
2022-11-08T04:45:58.325Z,10.42
2022-11-08T04:46:58.314Z,10.39
2022-11-08T04:47:58.309Z,10.36
2022-11-08T04:48:58.298Z,10.34
2022-11-08T04:49:58.280Z,10.32
2022-11-08T04:50:58.277Z,10.30
2022-11-08T04:51:58.254Z,10.28
2022-11-08T04:52:58.257Z,10.25
2022-11-08T04:53:58.247Z,10.25
2022-11-08T04:54:58.221Z,10.19
2022-11-08T04:55:58.232Z,10.18
2022-11-08T04:56:58.216Z,10.15
2022-11-08T04:57:58.188Z,10.14
2022-11-08T04:58:58.177Z,10.12
2022-11-08T04:59:58.168Z,10.12
2022-11-08T05:00:58.170Z,10.09
2022-11-08T05:01:58.334Z,10.09
2022-11-08T05:02:58.213Z,10.07
2022-11-08T05:03:58.123Z,10.07
2022-11-08T05:04:58.107Z,10.07
2022-11-08T05:05:58.122Z,10.09
2022-11-08T05:06:58.090Z,10.12
2022-11-08T05:07:58.090Z,10.14
2022-11-08T05:08:58.071Z,10.17
2022-11-08T05:10:02.345Z,10.24
2022-11-08T05:10:58.063Z,10.25
2022-11-08T05:11:58.046Z,10.28
2022-11-08T05:12:58.977Z,10.32
2022-11-08T05:13:58.023Z,10.34
2022-11-08T05:14:58.015Z,10.37
2022-11-08T05:15:57.996Z,10.39
2022-11-08T05:16:57.985Z,10.42
2022-11-08T05:17:57.985Z,10.43
2022-11-08T05:18:57.972Z,10.44
2022-11-08T05:19:57.944Z,10.44
2022-11-08T05:20:57.925Z,10.46
2022-11-08T05:21:57.916Z,10.44
2022-11-08T05:22:57.905Z,10.42
2022-11-08T05:23:57.916Z,10.39
2022-11-08T05:24:57.884Z,10.37
2022-11-08T05:25:57.874Z,10.34
2022-11-08T05:26:57.865Z,10.34
2022-11-08T05:27:57.890Z,10.33
2022-11-08T05:28:57.857Z,10.30
2022-11-08T05:29:57.832Z,10.30
2022-11-08T05:30:57.821Z,10.26
2022-11-08T05:31:57.805Z,10.25
2022-11-08T05:32:57.798Z,10.24
2022-11-08T05:33:57.797Z,10.24
2022-11-08T05:34:57.769Z,10.22
2022-11-08T05:36:00.066Z,10.22
2022-11-08T05:36:58.759Z,10.21
2022-11-08T05:37:57.737Z,10.17
2022-11-08T05:38:57.753Z,10.15
2022-11-08T05:39:57.731Z,10.14
2022-11-08T05:40:57.712Z,10.12
2022-11-08T05:41:57.705Z,10.10
2022-11-08T05:42:57.691Z,10.10
2022-11-08T05:43:57.676Z,10.09
2022-11-08T05:44:57.662Z,10.09
2022-11-08T05:45:57.661Z,10.07
2022-11-08T05:46:57.660Z,10.07
2022-11-08T05:47:57.645Z,10.06
2022-11-08T05:48:57.615Z,10.07
2022-11-08T05:49:57.615Z,10.04
2022-11-08T05:50:57.597Z,10.03
2022-11-08T05:51:57.583Z,10.03
2022-11-08T05:52:57.581Z,10.04
2022-11-08T05:53:57.554Z,10.04
2022-11-08T05:54:57.555Z,10.01
2022-11-08T05:55:57.561Z,10.03
2022-11-08T05:56:57.526Z,10.01
2022-11-08T05:57:57.516Z,10.03
2022-11-08T05:58:57.508Z,10.01
2022-11-08T05:59:57.488Z,10.00
2022-11-08T06:00:57.496Z,10.00
2022-11-08T06:01:57.503Z,9.99
2022-11-08T06:02:57.522Z,10.00
2022-11-08T06:03:57.470Z,9.97
2022-11-08T06:04:57.439Z,9.99
2022-11-08T06:05:57.437Z,9.97
2022-11-08T06:06:57.432Z,9.97
2022-11-08T06:07:57.431Z,9.97
2022-11-08T06:08:57.421Z,9.97
2022-11-08T06:09:57.391Z,9.96
2022-11-08T06:10:57.363Z,9.96
2022-11-08T06:11:57.399Z,9.97
2022-11-08T06:12:57.357Z,9.96
2022-11-08T06:13:57.360Z,9.97
2022-11-08T06:14:57.331Z,9.97
2022-11-08T06:15:57.326Z,9.97
2022-11-08T06:16:57.305Z,9.97
2022-11-08T06:17:57.289Z,9.97
2022-11-08T06:18:57.292Z,9.97
2022-11-08T06:19:57.288Z,9.94
2022-11-08T06:20:57.251Z,9.96
2022-11-08T06:21:57.250Z,9.96
2022-11-08T06:22:57.238Z,9.97
2022-11-08T06:23:57.258Z,9.96
2022-11-08T06:24:57.251Z,9.94
2022-11-08T06:25:57.225Z,9.93
2022-11-08T06:26:57.224Z,9.93
2022-11-08T06:27:57.180Z,9.93
2022-11-08T06:28:57.161Z,9.89
2022-11-08T06:29:57.159Z,9.91
2022-11-08T06:30:57.180Z,9.88
2022-11-08T06:31:57.136Z,9.88
2022-11-08T06:32:57.125Z,9.86
2022-11-08T06:33:57.115Z,9.86
2022-11-08T06:34:57.098Z,9.83
2022-11-08T06:35:57.125Z,9.81
2022-11-08T06:36:57.083Z,9.79
2022-11-08T06:38:01.200Z,9.78
2022-11-08T06:38:58.048Z,9.76
2022-11-08T06:39:57.073Z,9.75
2022-11-08T06:40:57.031Z,9.71
2022-11-08T06:41:57.059Z,9.71
2022-11-08T06:42:57.029Z,9.68
2022-11-08T06:43:57.005Z,9.70
2022-11-08T06:44:56.983Z,9.68
2022-11-08T06:45:56.975Z,9.67
2022-11-08T06:46:56.964Z,9.66
2022-11-08T06:47:56.962Z,9.63
2022-11-08T06:48:56.967Z,9.61
2022-11-08T06:49:56.932Z,9.58
2022-11-08T06:50:56.920Z,9.57
2022-11-08T06:51:56.922Z,9.60
2022-11-08T06:52:56.906Z,9.60
2022-11-08T06:53:56.923Z,9.63
2022-11-08T06:54:56.900Z,9.66
2022-11-08T06:55:56.866Z,9.67
2022-11-08T06:56:56.870Z,9.70
2022-11-08T06:57:56.848Z,9.73
2022-11-08T06:58:56.863Z,9.75
2022-11-08T06:59:56.839Z,9.76
2022-11-08T07:00:56.827Z,9.78
2022-11-08T07:01:56.930Z,9.78
2022-11-08T07:02:57.021Z,9.81
2022-11-08T07:03:56.779Z,9.83
2022-11-08T07:04:56.804Z,9.86
2022-11-08T07:05:56.762Z,9.88
2022-11-08T07:06:56.732Z,9.89
2022-11-08T07:07:56.777Z,9.94
2022-11-08T07:08:56.737Z,9.94
2022-11-08T07:10:02.329Z,9.97
2022-11-08T07:10:57.695Z,10.01
2022-11-08T07:11:56.691Z,10.03
2022-11-08T07:12:57.623Z,10.04
2022-11-08T07:13:56.684Z,10.07
2022-11-08T07:14:56.661Z,10.07
2022-11-08T07:15:56.654Z,10.10
2022-11-08T07:16:56.673Z,10.12
2022-11-08T07:17:56.646Z,10.12
2022-11-08T07:18:56.627Z,10.14
2022-11-08T07:19:56.619Z,10.15
2022-11-08T07:20:56.604Z,10.18
2022-11-08T07:21:56.583Z,10.18
2022-11-08T07:22:56.563Z,10.19
2022-11-08T07:23:56.551Z,10.21
2022-11-08T07:24:56.542Z,10.22
2022-11-08T07:25:56.567Z,10.24
2022-11-08T07:26:56.510Z,10.22
2022-11-08T07:27:56.506Z,10.25
2022-11-08T07:28:56.489Z,10.25
2022-11-08T07:29:56.488Z,10.26
2022-11-08T07:30:56.487Z,10.26
2022-11-08T07:31:56.478Z,10.28
2022-11-08T07:32:56.440Z,10.28
2022-11-08T07:33:56.447Z,10.30
2022-11-08T07:34:56.440Z,10.30
2022-11-08T07:35:56.417Z,10.30
2022-11-08T07:36:56.405Z,10.28
2022-11-08T07:37:56.392Z,10.28
2022-11-08T07:38:56.376Z,10.26
2022-11-08T07:39:56.396Z,10.26
2022-11-08T07:40:56.360Z,10.28
2022-11-08T07:41:56.347Z,10.26
2022-11-08T07:43:11.319Z,10.26
2022-11-08T07:43:57.341Z,10.26
2022-11-08T07:44:56.309Z,10.25
2022-11-08T07:45:56.300Z,10.28
2022-11-08T07:46:56.285Z,10.30
2022-11-08T07:47:56.293Z,10.26
2022-11-08T07:48:56.271Z,10.28
2022-11-08T07:49:56.260Z,10.26
2022-11-08T07:50:56.246Z,10.28
2022-11-08T07:51:57.185Z,10.30
2022-11-08T07:52:56.226Z,10.30
2022-11-08T07:54:00.305Z,10.30
2022-11-08T07:54:57.222Z,10.28
2022-11-08T07:55:56.183Z,10.32
2022-11-08T07:56:56.184Z,10.32
2022-11-08T07:57:56.173Z,10.32
2022-11-08T07:58:56.174Z,10.34
2022-11-08T07:59:56.137Z,10.40
2022-11-08T08:00:56.148Z,10.46
2022-11-08T08:01:56.175Z,10.52
2022-11-08T08:02:56.172Z,10.58
2022-11-08T08:03:56.103Z,10.62
2022-11-08T08:04:56.090Z,10.68
2022-11-08T08:06:00.818Z,10.71
2022-11-08T08:06:57.056Z,10.74
2022-11-08T08:07:56.053Z,10.80
2022-11-08T08:08:56.057Z,10.84
2022-11-08T08:09:56.020Z,10.89
2022-11-08T08:10:56.020Z,10.92
2022-11-08T08:11:56.006Z,10.95
2022-11-08T08:12:55.998Z,11.01
2022-11-08T08:13:55.979Z,11.06
2022-11-08T08:14:55.962Z,11.10
2022-11-08T08:15:55.967Z,11.13
2022-11-08T08:16:55.939Z,11.17
2022-11-08T08:17:55.943Z,11.21
2022-11-08T08:18:56.854Z,11.29
2022-11-08T08:19:55.920Z,11.36
2022-11-08T08:20:55.903Z,11.43
2022-11-08T08:21:55.907Z,11.44
2022-11-08T08:22:55.870Z,11.49
2022-11-08T08:23:55.866Z,11.47
2022-11-08T08:24:59.297Z,11.49
2022-11-08T08:25:56.873Z,11.56
2022-11-08T08:26:55.834Z,11.59
2022-11-08T08:27:55.857Z,11.64
2022-11-08T08:28:55.821Z,11.64
2022-11-08T08:29:55.800Z,11.68
2022-11-08T08:30:55.786Z,11.70
2022-11-08T08:31:55.785Z,11.77
2022-11-08T08:33:21.866Z,11.82
2022-11-08T08:33:56.771Z,11.86
2022-11-08T08:34:55.740Z,11.86
2022-11-08T08:35:55.749Z,11.93
2022-11-08T08:36:55.716Z,11.96
2022-11-08T08:37:55.713Z,11.97
2022-11-08T08:38:55.695Z,12.04
2022-11-08T08:39:55.698Z,12.08
2022-11-08T08:40:55.664Z,12.11
2022-11-08T08:41:55.676Z,12.09
2022-11-08T08:42:55.663Z,12.12
2022-11-08T08:43:55.636Z,12.15
2022-11-08T08:44:55.618Z,12.20
2022-11-08T08:45:55.619Z,12.23
2022-11-08T08:46:55.599Z,12.26
2022-11-08T08:47:55.608Z,12.26
2022-11-08T08:48:55.579Z,12.29
2022-11-08T08:49:55.590Z,12.31
2022-11-08T08:50:55.560Z,12.37
2022-11-08T08:51:55.570Z,12.38
2022-11-08T08:52:55.532Z,12.34
2022-11-08T08:53:55.533Z,12.38
2022-11-08T08:54:55.502Z,12.38
2022-11-08T08:55:55.512Z,12.38
2022-11-08T08:56:55.512Z,12.39
2022-11-08T08:57:55.494Z,12.44
2022-11-08T09:01:56.448Z,12.60
2022-11-08T09:02:55.412Z,12.64
2022-11-08T09:03:55.413Z,12.69
2022-11-08T09:04:55.406Z,12.69
2022-11-08T09:05:55.383Z,12.74
2022-11-08T09:06:55.410Z,12.79
2022-11-08T09:07:55.376Z,12.84
2022-11-08T09:08:55.347Z,12.82
2022-11-08T09:09:55.349Z,12.79
2022-11-08T09:10:55.331Z,12.77
2022-11-08T09:11:55.320Z,12.75
2022-11-08T09:12:55.335Z,12.71
2022-11-08T09:13:55.305Z,12.70
2022-11-08T09:14:55.279Z,12.75
2022-11-08T09:15:55.274Z,12.77
2022-11-08T09:16:56.217Z,12.74
2022-11-08T09:17:55.265Z,12.70
2022-11-08T09:18:55.279Z,12.74
2022-11-08T09:19:57.275Z,12.79
2022-11-08T09:20:55.239Z,12.82
2022-11-08T09:21:55.264Z,12.79
2022-11-08T09:22:55.209Z,12.82
2022-11-08T09:23:55.189Z,12.87
2022-11-08T09:24:55.172Z,12.84
2022-11-08T09:25:55.160Z,12.82
2022-11-08T09:26:55.161Z,12.82
2022-11-08T09:27:55.150Z,12.78
2022-11-08T09:28:55.148Z,12.78
2022-11-08T09:29:55.110Z,12.79
2022-11-08T09:30:55.124Z,12.77
2022-11-08T09:31:55.097Z,12.77
2022-11-08T09:33:02.914Z,12.74
2022-11-08T09:33:56.124Z,12.71
2022-11-08T09:34:55.086Z,12.71
2022-11-08T09:35:55.044Z,12.71
2022-11-08T09:36:55.062Z,12.67
2022-11-08T09:37:55.023Z,12.66
2022-11-08T09:38:55.042Z,12.64
2022-11-08T09:39:55.003Z,12.67
2022-11-08T09:40:54.985Z,12.67
2022-11-08T09:41:55.795Z,12.70
2022-11-08T09:42:54.972Z,12.71
2022-11-08T09:43:54.975Z,12.77
2022-11-08T09:44:54.966Z,12.82
2022-11-08T09:45:54.929Z,12.85
2022-11-08T09:46:54.923Z,12.92
2022-11-08T09:47:54.911Z,13.02
2022-11-08T09:48:54.908Z,13.09
2022-11-08T09:49:54.920Z,13.17
2022-11-08T09:50:54.882Z,13.20
2022-11-08T09:51:54.874Z,13.22
2022-11-08T09:52:54.861Z,13.29
2022-11-08T09:53:54.854Z,13.32
2022-11-08T09:54:54.846Z,13.40
2022-11-08T09:55:54.817Z,13.47
2022-11-08T09:56:54.811Z,13.52
2022-11-08T09:57:54.815Z,13.59
2022-11-08T09:58:54.787Z,13.62
2022-11-08T09:59:54.776Z,13.70
2022-11-08T10:00:54.762Z,13.77
2022-11-08T10:01:54.824Z,13.79
2022-11-08T10:02:54.756Z,13.84
2022-11-08T10:03:54.735Z,13.89
2022-11-08T10:04:54.742Z,13.94
2022-11-08T10:05:54.696Z,13.98
2022-11-08T10:06:58.203Z,14.01
2022-11-08T10:07:55.673Z,14.01
2022-11-08T10:08:54.674Z,14.06
2022-11-08T10:09:54.674Z,14.12
2022-11-08T10:10:54.660Z,14.12
2022-11-08T10:11:54.657Z,14.16
2022-11-08T10:12:54.641Z,14.17
2022-11-08T10:13:54.613Z,14.19
2022-11-08T10:14:54.898Z,14.17
2022-11-08T10:15:54.620Z,14.19
2022-11-08T10:16:54.575Z,14.21
2022-11-08T10:17:54.580Z,14.21
2022-11-08T10:18:54.553Z,14.25
2022-11-08T10:19:54.540Z,14.29
2022-11-08T10:20:54.562Z,14.34
2022-11-08T10:21:54.619Z,14.38
2022-11-08T10:22:54.512Z,14.39
2022-11-08T10:23:54.490Z,14.43
2022-11-08T10:24:54.490Z,14.46
2022-11-08T10:25:54.471Z,14.47
2022-11-08T10:26:54.487Z,14.50
2022-11-08T10:27:54.473Z,14.49
2022-11-08T10:28:54.457Z,14.47
2022-11-08T10:29:54.442Z,14.50
2022-11-08T10:30:54.415Z,14.54
2022-11-08T10:31:54.409Z,14.57
2022-11-08T10:32:54.421Z,14.61
2022-11-08T10:33:54.401Z,14.62
2022-11-08T10:34:54.372Z,14.65
2022-11-08T10:35:59.060Z,14.68
2022-11-08T10:36:55.354Z,14.71
2022-11-08T10:37:54.346Z,14.74
2022-11-08T10:38:54.334Z,14.74
2022-11-08T10:39:54.320Z,14.80
2022-11-08T10:40:54.329Z,14.81
2022-11-08T10:41:54.301Z,14.83
2022-11-08T10:42:54.292Z,14.83
2022-11-08T10:43:54.267Z,14.84
2022-11-08T10:44:54.258Z,14.86
2022-11-08T10:45:54.260Z,14.86
2022-11-08T10:46:54.258Z,14.84
2022-11-08T10:47:54.219Z,14.84
2022-11-08T10:48:54.207Z,14.86
2022-11-08T10:49:56.349Z,14.86
2022-11-08T10:50:55.218Z,14.88
2022-11-08T10:51:54.174Z,14.90
2022-11-08T10:52:54.181Z,14.88
2022-11-08T10:53:54.204Z,14.93
2022-11-08T10:54:54.142Z,14.93
2022-11-08T10:55:54.134Z,14.94
2022-11-08T10:56:55.073Z,14.95
2022-11-08T10:57:54.124Z,15.01
2022-11-08T10:58:54.102Z,15.01
2022-11-08T10:59:54.091Z,15.02
2022-11-08T11:00:54.104Z,15.05
2022-11-08T11:01:54.091Z,15.08
2022-11-08T11:02:54.053Z,15.12
2022-11-08T11:03:54.035Z,15.12
2022-11-08T11:04:54.033Z,15.19
2022-11-08T11:05:54.038Z,15.20
2022-11-08T11:06:54.055Z,15.20
2022-11-08T11:07:57.636Z,15.19
2022-11-08T11:08:54.987Z,15.20
2022-11-08T11:09:53.968Z,15.20
2022-11-08T11:10:53.963Z,15.23
2022-11-08T11:11:53.953Z,15.23
2022-11-08T11:12:53.957Z,15.24
2022-11-08T11:13:53.927Z,15.26
2022-11-08T11:14:53.989Z,15.26
2022-11-08T11:15:53.930Z,15.26
2022-11-08T11:16:53.953Z,15.27
2022-11-08T11:17:53.895Z,15.27
2022-11-08T11:18:53.876Z,15.33
2022-11-08T11:19:53.856Z,15.31
2022-11-08T11:20:53.849Z,15.38
2022-11-08T11:21:53.830Z,15.41
2022-11-08T11:22:53.843Z,15.45
2022-11-08T11:23:53.840Z,15.49
2022-11-08T11:24:53.840Z,15.54
2022-11-08T11:25:53.793Z,15.56
2022-11-08T11:26:53.783Z,15.52
2022-11-08T11:27:53.786Z,15.51
2022-11-08T11:28:53.774Z,15.54
2022-11-08T11:29:53.753Z,15.57
2022-11-08T11:30:53.752Z,15.61
2022-11-08T11:31:53.721Z,15.66
2022-11-08T11:32:53.804Z,15.61
2022-11-08T11:33:53.715Z,15.61
2022-11-08T11:34:53.704Z,15.59
2022-11-08T11:35:53.696Z,15.57
2022-11-08T11:36:53.697Z,15.57
2022-11-08T11:37:53.658Z,15.59
2022-11-08T11:38:53.649Z,15.61
2022-11-08T11:39:53.656Z,15.64
2022-11-08T11:40:53.661Z,15.66
2022-11-08T11:41:53.609Z,15.70
2022-11-08T11:42:53.599Z,15.74
2022-11-08T11:43:54.537Z,15.75
2022-11-08T11:44:53.594Z,15.79
2022-11-08T11:45:54.535Z,15.81
2022-11-08T11:46:53.548Z,15.81
2022-11-08T11:47:53.777Z,15.82
2022-11-08T11:48:53.533Z,15.82
2022-11-08T11:49:54.480Z,15.84
2022-11-08T11:50:53.558Z,15.85
2022-11-08T11:51:53.483Z,15.88
2022-11-08T11:52:53.490Z,15.92
2022-11-08T11:53:53.489Z,15.93
2022-11-08T11:54:53.467Z,15.94
2022-11-08T11:55:53.463Z,15.99
2022-11-08T11:56:53.444Z,16.01
2022-11-08T11:57:53.424Z,16.06
2022-11-08T11:58:53.414Z,16.06
2022-11-08T11:59:53.410Z,16.07
2022-11-08T12:00:53.405Z,16.11
2022-11-08T12:01:53.471Z,16.09
2022-11-08T12:02:53.367Z,16.07
2022-11-08T12:03:53.363Z,16.04
2022-11-08T12:04:53.366Z,16.07
2022-11-08T12:05:53.341Z,16.06
2022-11-08T12:06:53.437Z,16.01
2022-11-08T12:07:53.316Z,16.01
2022-11-08T12:08:53.307Z,16.00
2022-11-08T12:09:53.279Z,16.00
2022-11-08T12:10:53.282Z,16.01
2022-11-08T12:11:53.260Z,16.01
2022-11-08T12:12:53.270Z,16.03
2022-11-08T12:13:54.665Z,16.01
2022-11-08T12:14:53.237Z,15.99
2022-11-08T12:15:53.217Z,15.99
2022-11-08T12:16:53.216Z,15.99
2022-11-08T12:17:53.216Z,15.99
2022-11-08T12:18:53.191Z,16.01
2022-11-08T12:19:53.203Z,16.03
2022-11-08T12:20:53.847Z,16.03
2022-11-08T12:21:53.151Z,16.04
2022-11-08T12:22:53.144Z,16.07
2022-11-08T12:23:53.147Z,16.09
2022-11-08T12:24:53.143Z,16.11
2022-11-08T12:25:53.120Z,16.14
2022-11-08T12:26:53.113Z,16.16
2022-11-08T12:27:53.093Z,16.12
2022-11-08T12:28:53.112Z,16.15
2022-11-08T12:29:53.079Z,16.15
2022-11-08T12:30:53.075Z,16.14
2022-11-08T12:31:53.038Z,16.16
2022-11-08T12:32:53.058Z,16.14
2022-11-08T12:33:57.751Z,16.12
2022-11-08T12:34:54.013Z,16.11
2022-11-08T12:35:53.000Z,16.11
2022-11-08T12:36:52.993Z,16.12
2022-11-08T12:37:52.970Z,16.14
2022-11-08T12:38:52.957Z,16.15
2022-11-08T12:39:52.928Z,16.20
2022-11-08T12:40:52.944Z,16.18
2022-11-08T12:41:52.931Z,16.18
2022-11-08T12:42:53.190Z,16.22
2022-11-08T12:43:52.903Z,16.22
2022-11-08T12:44:52.906Z,16.18
2022-11-08T12:45:52.895Z,16.15
2022-11-08T12:46:52.869Z,16.11
2022-11-08T12:47:52.871Z,16.11
2022-11-08T12:48:52.865Z,16.07
2022-11-08T12:49:52.825Z,16.11
2022-11-08T12:50:55.175Z,16.09
2022-11-08T12:51:52.810Z,16.09
2022-11-08T12:52:52.879Z,16.09
2022-11-08T12:53:52.805Z,16.07
2022-11-08T12:54:52.798Z,16.07
2022-11-08T12:55:52.778Z,16.07
2022-11-08T12:56:52.793Z,16.11